sensor_id;sensor_type;location;lat;lon;timestamp;P1;durP1;ratioP1;P2;durP2;ratioP2
43801;SDS011;29429;51.074;13.764;2023-04-06T00:01:26;5.85;;;3.00;;
43801;SDS011;29429;51.074;13.764;2023-04-06T00:03:56;4.85;;;2.38;;
43801;SDS011;29429;51.074;13.764;2023-04-06T00:06:24;5.05;;;3.10;;
43801;SDS011;29429;51.074;13.764;2023-04-06T00:11:27;8.73;;;3.47;;
43801;SDS011;29429;51.074;13.764;2023-04-06T00:13:57;5.88;;;2.72;;
43801;SDS011;29429;51.074;13.764;2023-04-06T00:16:27;5.65;;;2.97;;
43801;SDS011;29429;51.074;13.764;2023-04-06T00:18:56;5.80;;;2.67;;
43801;SDS011;29429;51.074;13.764;2023-04-06T00:21:29;5.75;;;2.90;;
43801;SDS011;29429;51.074;13.764;2023-04-06T00:23:57;5.93;;;3.08;;
43801;SDS011;29429;51.074;13.764;2023-04-06T00:26:24;7.95;;;2.80;;
43801;SDS011;29429;51.074;13.764;2023-04-06T00:28:54;5.03;;;2.83;;
43801;SDS011;29429;51.074;13.764;2023-04-06T00:31:21;6.18;;;3.10;;
43801;SDS011;29429;51.074;13.764;2023-04-06T00:33:49;7.57;;;3.28;;
43801;SDS011;29429;51.074;13.764;2023-04-06T00:36:16;5.25;;;2.92;;
43801;SDS011;29429;51.074;13.764;2023-04-06T00:38:57;7.10;;;2.65;;
43801;SDS011;29429;51.074;13.764;2023-04-06T00:41:34;7.82;;;3.45;;
43801;SDS011;29429;51.074;13.764;2023-04-06T00:44:18;4.72;;;2.78;;
43801;SDS011;29429;51.074;13.764;2023-04-06T00:49:24;6.20;;;3.05;;
43801;SDS011;29429;51.074;13.764;2023-04-06T00:51:53;4.22;;;2.67;;
43801;SDS011;29429;51.074;13.764;2023-04-06T00:54:21;5.25;;;3.15;;
43801;SDS011;29429;51.074;13.764;2023-04-06T00:56:48;2.80;;;2.08;;
43801;SDS011;29429;51.074;13.764;2023-04-06T00:59:16;4.28;;;2.78;;
43801;SDS011;29429;51.074;13.764;2023-04-06T01:01:45;7.53;;;2.97;;
43801;SDS011;29429;51.074;13.764;2023-04-06T01:04:36;6.43;;;3.65;;
43801;SDS011;29429;51.074;13.764;2023-04-06T01:07:08;6.88;;;3.88;;
43801;SDS011;29429;51.074;13.764;2023-04-06T01:09:43;6.00;;;2.45;;
43801;SDS011;29429;51.074;13.764;2023-04-06T01:12:17;5.53;;;2.65;;
43801;SDS011;29429;51.074;13.764;2023-04-06T01:14:46;5.53;;;2.67;;
43801;SDS011;29429;51.074;13.764;2023-04-06T01:17:14;5.45;;;2.80;;
43801;SDS011;29429;51.074;13.764;2023-04-06T01:23:08;4.47;;;2.92;;
43801;SDS011;29429;51.074;13.764;2023-04-06T01:25:42;5.57;;;3.00;;
43801;SDS011;29429;51.074;13.764;2023-04-06T01:28:09;7.07;;;3.05;;
43801;SDS011;29429;51.074;13.764;2023-04-06T01:30:58;5.80;;;3.25;;
43801;SDS011;29429;51.074;13.764;2023-04-06T01:33:43;6.72;;;3.25;;
43801;SDS011;29429;51.074;13.764;2023-04-06T01:36:15;6.63;;;3.33;;
43801;SDS011;29429;51.074;13.764;2023-04-06T01:38:47;5.53;;;3.22;;
43801;SDS011;29429;51.074;13.764;2023-04-06T01:41:17;6.50;;;3.15;;
43801;SDS011;29429;51.074;13.764;2023-04-06T01:43:49;4.63;;;3.10;;
43801;SDS011;29429;51.074;13.764;2023-04-06T01:46:25;8.05;;;3.78;;
43801;SDS011;29429;51.074;13.764;2023-04-06T01:48:53;5.40;;;3.45;;
43801;SDS011;29429;51.074;13.764;2023-04-06T01:51:31;4.03;;;2.90;;
43801;SDS011;29429;51.074;13.764;2023-04-06T01:54:01;6.68;;;3.63;;
43801;SDS011;29429;51.074;13.764;2023-04-06T01:56:41;7.78;;;3.60;;
43801;SDS011;29429;51.074;13.764;2023-04-06T01:59:29;6.93;;;3.50;;
43801;SDS011;29429;51.074;13.764;2023-04-06T02:02:28;7.93;;;3.35;;
43801;SDS011;29429;51.074;13.764;2023-04-06T02:05:25;10.13;;;4.05;;
43801;SDS011;29429;51.074;13.764;2023-04-06T02:08:36;5.05;;;3.30;;
43801;SDS011;29429;51.074;13.764;2023-04-06T02:11:11;5.30;;;2.70;;
43801;SDS011;29429;51.074;13.764;2023-04-06T02:13:49;6.78;;;3.42;;
43801;SDS011;29429;51.074;13.764;2023-04-06T02:16:21;6.88;;;3.00;;
43801;SDS011;29429;51.074;13.764;2023-04-06T02:18:52;5.22;;;3.10;;
43801;SDS011;29429;51.074;13.764;2023-04-06T02:21:20;6.80;;;3.22;;
43801;SDS011;29429;51.074;13.764;2023-04-06T02:23:47;5.28;;;2.95;;
43801;SDS011;29429;51.074;13.764;2023-04-06T02:26:16;5.30;;;2.88;;
43801;SDS011;29429;51.074;13.764;2023-04-06T02:28:44;5.65;;;2.65;;
43801;SDS011;29429;51.074;13.764;2023-04-06T02:31:12;8.57;;;3.72;;
43801;SDS011;29429;51.074;13.764;2023-04-06T02:33:43;5.97;;;3.28;;
43801;SDS011;29429;51.074;13.764;2023-04-06T02:36:13;9.70;;;3.08;;
43801;SDS011;29429;51.074;13.764;2023-04-06T02:38:40;5.45;;;3.10;;
43801;SDS011;29429;51.074;13.764;2023-04-06T02:41:08;7.88;;;3.47;;
43801;SDS011;29429;51.074;13.764;2023-04-06T02:43:36;6.50;;;3.03;;
43801;SDS011;29429;51.074;13.764;2023-04-06T02:46:10;10.13;;;3.28;;
43801;SDS011;29429;51.074;13.764;2023-04-06T02:48:38;10.43;;;3.08;;
43801;SDS011;29429;51.074;13.764;2023-04-06T02:51:07;11.05;;;3.50;;
43801;SDS011;29429;51.074;13.764;2023-04-06T02:53:37;8.48;;;3.67;;
43801;SDS011;29429;51.074;13.764;2023-04-06T02:56:04;5.75;;;2.90;;
43801;SDS011;29429;51.074;13.764;2023-04-06T02:58:43;7.75;;;3.13;;
43801;SDS011;29429;51.074;13.764;2023-04-06T03:01:10;7.72;;;3.45;;
43801;SDS011;29429;51.074;13.764;2023-04-06T03:03:39;8.45;;;4.07;;
43801;SDS011;29429;51.074;13.764;2023-04-06T03:06:13;5.38;;;2.95;;
43801;SDS011;29429;51.074;13.764;2023-04-06T03:08:42;6.35;;;2.75;;
43801;SDS011;29429;51.074;13.764;2023-04-06T03:11:09;7.75;;;3.00;;
43801;SDS011;29429;51.074;13.764;2023-04-06T03:13:40;5.82;;;3.15;;
43801;SDS011;29429;51.074;13.764;2023-04-06T03:16:09;7.53;;;3.47;;
43801;SDS011;29429;51.074;13.764;2023-04-06T03:18:36;9.55;;;3.22;;
43801;SDS011;29429;51.074;13.764;2023-04-06T03:21:06;7.75;;;3.22;;
43801;SDS011;29429;51.074;13.764;2023-04-06T03:23:43;5.55;;;3.08;;
43801;SDS011;29429;51.074;13.764;2023-04-06T03:26:10;6.82;;;2.92;;
43801;SDS011;29429;51.074;13.764;2023-04-06T03:28:37;7.70;;;3.03;;
43801;SDS011;29429;51.074;13.764;2023-04-06T03:31:09;6.45;;;2.90;;
43801;SDS011;29429;51.074;13.764;2023-04-06T03:33:56;6.30;;;2.80;;
43801;SDS011;29429;51.074;13.764;2023-04-06T03:36:28;9.25;;;3.72;;
43801;SDS011;29429;51.074;13.764;2023-04-06T03:38:58;9.82;;;3.50;;
43801;SDS011;29429;51.074;13.764;2023-04-06T03:41:26;7.38;;;3.45;;
43801;SDS011;29429;51.074;13.764;2023-04-06T03:44:01;8.23;;;3.55;;
43801;SDS011;29429;51.074;13.764;2023-04-06T03:46:28;6.78;;;3.60;;
43801;SDS011;29429;51.074;13.764;2023-04-06T03:48:57;9.45;;;3.60;;
43801;SDS011;29429;51.074;13.764;2023-04-06T03:51:25;6.05;;;3.80;;
43801;SDS011;29429;51.074;13.764;2023-04-06T03:53:52;8.00;;;4.22;;
43801;SDS011;29429;51.074;13.764;2023-04-06T03:56:19;7.10;;;3.47;;
43801;SDS011;29429;51.074;13.764;2023-04-06T03:58:47;7.65;;;4.47;;
43801;SDS011;29429;51.074;13.764;2023-04-06T04:01:28;7.65;;;4.03;;
43801;SDS011;29429;51.074;13.764;2023-04-06T04:03:56;7.57;;;3.72;;
43801;SDS011;29429;51.074;13.764;2023-04-06T04:06:24;5.22;;;3.55;;
43801;SDS011;29429;51.074;13.764;2023-04-06T04:08:51;9.10;;;3.90;;
43801;SDS011;29429;51.074;13.764;2023-04-06T04:11:18;9.35;;;3.85;;
43801;SDS011;29429;51.074;13.764;2023-04-06T04:13:51;7.55;;;4.05;;
43801;SDS011;29429;51.074;13.764;2023-04-06T04:16:27;13.60;;;4.20;;
43801;SDS011;29429;51.074;13.764;2023-04-06T04:20:24;11.98;;;4.03;;
43801;SDS011;29429;51.074;13.764;2023-04-06T04:22:51;16.95;;;4.93;;
43801;SDS011;29429;51.074;13.764;2023-04-06T04:25:18;16.30;;;4.50;;
43801;SDS011;29429;51.074;13.764;2023-04-06T04:27:48;13.70;;;5.45;;
43801;SDS011;29429;51.074;13.764;2023-04-06T04:30:16;16.10;;;4.57;;
43801;SDS011;29429;51.074;13.764;2023-04-06T04:32:43;11.63;;;3.90;;
43801;SDS011;29429;51.074;13.764;2023-04-06T04:35:10;8.23;;;4.38;;
43801;SDS011;29429;51.074;13.764;2023-04-06T04:37:41;9.85;;;4.28;;
43801;SDS011;29429;51.074;13.764;2023-04-06T04:40:09;13.02;;;5.30;;
43801;SDS011;29429;51.074;13.764;2023-04-06T04:42:47;7.47;;;4.30;;
43801;SDS011;29429;51.074;13.764;2023-04-06T04:45:21;8.82;;;4.80;;
43801;SDS011;29429;51.074;13.764;2023-04-06T04:47:49;13.48;;;5.10;;
43801;SDS011;29429;51.074;13.764;2023-04-06T04:54:52;11.23;;;4.90;;
43801;SDS011;29429;51.074;13.764;2023-04-06T04:57:25;10.77;;;4.85;;
43801;SDS011;29429;51.074;13.764;2023-04-06T04:59:52;13.93;;;5.13;;
43801;SDS011;29429;51.074;13.764;2023-04-06T05:02:24;23.70;;;7.57;;
43801;SDS011;29429;51.074;13.764;2023-04-06T05:05:11;7.80;;;4.40;;
43801;SDS011;29429;51.074;13.764;2023-04-06T05:07:44;19.83;;;6.18;;
43801;SDS011;29429;51.074;13.764;2023-04-06T05:10:25;11.30;;;4.97;;
43801;SDS011;29429;51.074;13.764;2023-04-06T05:12:56;11.73;;;5.07;;
43801;SDS011;29429;51.074;13.764;2023-04-06T05:15:25;11.52;;;4.80;;
43801;SDS011;29429;51.074;13.764;2023-04-06T05:17:57;9.13;;;4.85;;
43801;SDS011;29429;51.074;13.764;2023-04-06T05:20:30;8.63;;;4.60;;
43801;SDS011;29429;51.074;13.764;2023-04-06T05:22:58;12.10;;;5.32;;
43801;SDS011;29429;51.074;13.764;2023-04-06T05:25:33;14.77;;;6.77;;
43801;SDS011;29429;51.074;13.764;2023-04-06T05:28:13;14.02;;;7.18;;
43801;SDS011;29429;51.074;13.764;2023-04-06T05:30:43;13.98;;;6.18;;
43801;SDS011;29429;51.074;13.764;2023-04-06T05:33:13;15.27;;;6.43;;
43801;SDS011;29429;51.074;13.764;2023-04-06T05:35:54;13.15;;;7.13;;
43801;SDS011;29429;51.074;13.764;2023-04-06T05:38:22;13.85;;;6.57;;
43801;SDS011;29429;51.074;13.764;2023-04-06T05:40:52;12.63;;;6.65;;
43801;SDS011;29429;51.074;13.764;2023-04-06T05:43:22;14.88;;;7.25;;
43801;SDS011;29429;51.074;13.764;2023-04-06T05:45:53;14.90;;;6.63;;
43801;SDS011;29429;51.074;13.764;2023-04-06T05:48:24;13.63;;;7.00;;
43801;SDS011;29429;51.074;13.764;2023-04-06T05:50:52;10.88;;;6.65;;
43801;SDS011;29429;51.074;13.764;2023-04-06T05:53:28;13.52;;;6.28;;
43801;SDS011;29429;51.074;13.764;2023-04-06T05:56:01;12.73;;;6.75;;
43801;SDS011;29429;51.074;13.764;2023-04-06T05:58:29;9.82;;;6.30;;
43801;SDS011;29429;51.074;13.764;2023-04-06T06:00:58;16.33;;;6.57;;
43801;SDS011;29429;51.074;13.764;2023-04-06T06:03:36;11.85;;;6.65;;
43801;SDS011;29429;51.074;13.764;2023-04-06T06:06:05;12.25;;;6.78;;
43801;SDS011;29429;51.074;13.764;2023-04-06T06:08:42;16.42;;;8.27;;
43801;SDS011;29429;51.074;13.764;2023-04-06T06:11:13;13.00;;;6.60;;
43801;SDS011;29429;51.074;13.764;2023-04-06T06:13:41;12.90;;;6.97;;
43801;SDS011;29429;51.074;13.764;2023-04-06T06:16:08;12.50;;;6.10;;
43801;SDS011;29429;51.074;13.764;2023-04-06T06:18:41;12.98;;;7.93;;
43801;SDS011;29429;51.074;13.764;2023-04-06T06:21:09;12.13;;;7.38;;
43801;SDS011;29429;51.074;13.764;2023-04-06T06:23:38;13.75;;;7.45;;
43801;SDS011;29429;51.074;13.764;2023-04-06T06:26:06;12.70;;;6.47;;
43801;SDS011;29429;51.074;13.764;2023-04-06T06:28:35;12.70;;;6.88;;
43801;SDS011;29429;51.074;13.764;2023-04-06T06:31:03;13.77;;;7.32;;
43801;SDS011;29429;51.074;13.764;2023-04-06T06:33:30;11.30;;;5.78;;
43801;SDS011;29429;51.074;13.764;2023-04-06T06:36:02;11.35;;;6.20;;
43801;SDS011;29429;51.074;13.764;2023-04-06T06:38:29;11.55;;;6.40;;
43801;SDS011;29429;51.074;13.764;2023-04-06T06:40:56;11.50;;;6.13;;
43801;SDS011;29429;51.074;13.764;2023-04-06T06:43:27;18.40;;;6.90;;
43801;SDS011;29429;51.074;13.764;2023-04-06T06:45:58;13.20;;;6.30;;
43801;SDS011;29429;51.074;13.764;2023-04-06T06:48:25;11.40;;;6.25;;
43801;SDS011;29429;51.074;13.764;2023-04-06T06:50:53;12.75;;;6.47;;
43801;SDS011;29429;51.074;13.764;2023-04-06T06:53:20;9.88;;;5.90;;
43801;SDS011;29429;51.074;13.764;2023-04-06T06:55:47;11.52;;;6.95;;
43801;SDS011;29429;51.074;13.764;2023-04-06T06:58:18;11.73;;;5.82;;
43801;SDS011;29429;51.074;13.764;2023-04-06T07:00:49;10.52;;;6.15;;
43801;SDS011;29429;51.074;13.764;2023-04-06T07:03:16;10.32;;;5.80;;
43801;SDS011;29429;51.074;13.764;2023-04-06T07:05:46;10.05;;;6.22;;
43801;SDS011;29429;51.074;13.764;2023-04-06T07:08:20;9.27;;;6.03;;
43801;SDS011;29429;51.074;13.764;2023-04-06T07:10:50;13.13;;;7.22;;
43801;SDS011;29429;51.074;13.764;2023-04-06T07:13:24;12.65;;;6.30;;
43801;SDS011;29429;51.074;13.764;2023-04-06T07:15:56;11.88;;;6.15;;
43801;SDS011;29429;51.074;13.764;2023-04-06T07:18:23;8.68;;;5.25;;
43801;SDS011;29429;51.074;13.764;2023-04-06T07:20:51;9.48;;;5.47;;
43801;SDS011;29429;51.074;13.764;2023-04-06T07:23:20;12.70;;;6.75;;
43801;SDS011;29429;51.074;13.764;2023-04-06T07:25:47;11.60;;;6.60;;
43801;SDS011;29429;51.074;13.764;2023-04-06T07:28:17;14.75;;;6.57;;
43801;SDS011;29429;51.074;13.764;2023-04-06T07:30:48;12.73;;;6.63;;
43801;SDS011;29429;51.074;13.764;2023-04-06T07:33:20;10.07;;;5.78;;
43801;SDS011;29429;51.074;13.764;2023-04-06T07:35:47;8.60;;;6.07;;
43801;SDS011;29429;51.074;13.764;2023-04-06T07:38:15;9.25;;;5.50;;
43801;SDS011;29429;51.074;13.764;2023-04-06T07:40:42;9.10;;;5.15;;
43801;SDS011;29429;51.074;13.764;2023-04-06T07:43:26;16.42;;;6.20;;
43801;SDS011;29429;51.074;13.764;2023-04-06T07:45:54;11.77;;;5.90;;
43801;SDS011;29429;51.074;13.764;2023-04-06T07:48:25;8.13;;;5.20;;
43801;SDS011;29429;51.074;13.764;2023-04-06T07:51:02;13.10;;;5.97;;
43801;SDS011;29429;51.074;13.764;2023-04-06T07:53:34;9.23;;;5.10;;
43801;SDS011;29429;51.074;13.764;2023-04-06T07:56:04;9.07;;;5.05;;
43801;SDS011;29429;51.074;13.764;2023-04-06T07:58:31;11.82;;;5.75;;
43801;SDS011;29429;51.074;13.764;2023-04-06T08:01:03;9.57;;;5.95;;
43801;SDS011;29429;51.074;13.764;2023-04-06T08:03:34;9.23;;;6.15;;
43801;SDS011;29429;51.074;13.764;2023-04-06T08:06:04;9.00;;;5.15;;
43801;SDS011;29429;51.074;13.764;2023-04-06T08:08:34;13.55;;;5.85;;
43801;SDS011;29429;51.074;13.764;2023-04-06T08:11:02;8.88;;;5.07;;
43801;SDS011;29429;51.074;13.764;2023-04-06T08:13:33;9.15;;;5.40;;
43801;SDS011;29429;51.074;13.764;2023-04-06T08:16:07;7.38;;;4.85;;
43801;SDS011;29429;51.074;13.764;2023-04-06T08:18:40;6.90;;;4.82;;
43801;SDS011;29429;51.074;13.764;2023-04-06T08:21:07;7.18;;;4.50;;
43801;SDS011;29429;51.074;13.764;2023-04-06T08:23:35;7.78;;;4.68;;
43801;SDS011;29429;51.074;13.764;2023-04-06T08:26:02;10.02;;;5.20;;
43801;SDS011;29429;51.074;13.764;2023-04-06T08:28:30;9.50;;;5.13;;
43801;SDS011;29429;51.074;13.764;2023-04-06T08:30:59;8.50;;;5.63;;
43801;SDS011;29429;51.074;13.764;2023-04-06T08:33:30;8.02;;;4.82;;
43801;SDS011;29429;51.074;13.764;2023-04-06T08:35:58;8.18;;;4.65;;
43801;SDS011;29429;51.074;13.764;2023-04-06T08:38:29;6.80;;;4.40;;
43801;SDS011;29429;51.074;13.764;2023-04-06T08:40:57;7.50;;;4.32;;
43801;SDS011;29429;51.074;13.764;2023-04-06T08:43:26;7.07;;;4.63;;
43801;SDS011;29429;51.074;13.764;2023-04-06T08:45:54;7.07;;;4.03;;
43801;SDS011;29429;51.074;13.764;2023-04-06T08:48:22;6.03;;;4.25;;
43801;SDS011;29429;51.074;13.764;2023-04-06T08:50:51;9.73;;;4.50;;
43801;SDS011;29429;51.074;13.764;2023-04-06T08:53:21;5.22;;;3.60;;
43801;SDS011;29429;51.074;13.764;2023-04-06T08:55:51;5.40;;;3.35;;
43801;SDS011;29429;51.074;13.764;2023-04-06T08:58:18;5.90;;;3.42;;
43801;SDS011;29429;51.074;13.764;2023-04-06T09:01:54;7.20;;;3.95;;
43801;SDS011;29429;51.074;13.764;2023-04-06T09:04:28;6.45;;;3.50;;
43801;SDS011;29429;51.074;13.764;2023-04-06T09:06:56;5.82;;;4.10;;
43801;SDS011;29429;51.074;13.764;2023-04-06T09:09:25;8.95;;;4.93;;
43801;SDS011;29429;51.074;13.764;2023-04-06T09:11:56;6.50;;;4.00;;
43801;SDS011;29429;51.074;13.764;2023-04-06T09:14:47;6.22;;;3.80;;
43801;SDS011;29429;51.074;13.764;2023-04-06T09:19:49;5.78;;;3.33;;
43801;SDS011;29429;51.074;13.764;2023-04-06T09:22:23;5.82;;;3.30;;
43801;SDS011;29429;51.074;13.764;2023-04-06T09:24:53;5.40;;;3.53;;
43801;SDS011;29429;51.074;13.764;2023-04-06T09:27:34;8.02;;;3.60;;
43801;SDS011;29429;51.074;13.764;2023-04-06T09:33:21;7.22;;;3.95;;
43801;SDS011;29429;51.074;13.764;2023-04-06T09:35:51;9.98;;;4.00;;
43801;SDS011;29429;51.074;13.764;2023-04-06T09:38:19;6.18;;;3.72;;
43801;SDS011;29429;51.074;13.764;2023-04-06T09:40:51;6.57;;;3.75;;
43801;SDS011;29429;51.074;13.764;2023-04-06T09:43:30;6.00;;;3.15;;
43801;SDS011;29429;51.074;13.764;2023-04-06T09:46:00;4.72;;;3.58;;
43801;SDS011;29429;51.074;13.764;2023-04-06T09:48:30;4.80;;;3.08;;
43801;SDS011;29429;51.074;13.764;2023-04-06T09:51:03;4.43;;;2.90;;
43801;SDS011;29429;51.074;13.764;2023-04-06T09:53:33;6.43;;;3.13;;
43801;SDS011;29429;51.074;13.764;2023-04-06T09:56:04;6.28;;;2.67;;
43801;SDS011;29429;51.074;13.764;2023-04-06T09:58:39;6.68;;;3.30;;
43801;SDS011;29429;51.074;13.764;2023-04-06T10:01:12;3.90;;;3.00;;
43801;SDS011;29429;51.074;13.764;2023-04-06T10:06:15;4.95;;;2.88;;
43801;SDS011;29429;51.074;13.764;2023-04-06T10:08:45;6.57;;;2.92;;
43801;SDS011;29429;51.074;13.764;2023-04-06T10:14:10;3.50;;;2.63;;
43801;SDS011;29429;51.074;13.764;2023-04-06T10:16:39;5.53;;;2.90;;
43801;SDS011;29429;51.074;13.764;2023-04-06T10:22:20;5.82;;;2.58;;
43801;SDS011;29429;51.074;13.764;2023-04-06T10:25:34;3.92;;;2.45;;
43801;SDS011;29429;51.074;13.764;2023-04-06T10:28:08;4.60;;;2.20;;
43801;SDS011;29429;51.074;13.764;2023-04-06T10:30:43;6.07;;;2.17;;
43801;SDS011;29429;51.074;13.764;2023-04-06T10:33:24;4.22;;;2.15;;
43801;SDS011;29429;51.074;13.764;2023-04-06T10:35:53;5.20;;;2.22;;
43801;SDS011;29429;51.074;13.764;2023-04-06T10:41:23;5.97;;;2.30;;
43801;SDS011;29429;51.074;13.764;2023-04-06T10:44:02;2.72;;;1.85;;
43801;SDS011;29429;51.074;13.764;2023-04-06T10:46:39;6.30;;;2.33;;
43801;SDS011;29429;51.074;13.764;2023-04-06T10:49:13;4.32;;;2.28;;
43801;SDS011;29429;51.074;13.764;2023-04-06T10:55:18;3.35;;;2.33;;
43801;SDS011;29429;51.074;13.764;2023-04-06T10:58:09;3.97;;;2.22;;
43801;SDS011;29429;51.074;13.764;2023-04-06T11:00:44;3.35;;;2.30;;
43801;SDS011;29429;51.074;13.764;2023-04-06T11:03:31;3.03;;;2.47;;
43801;SDS011;29429;51.074;13.764;2023-04-06T11:06:23;4.22;;;2.40;;
43801;SDS011;29429;51.074;13.764;2023-04-06T11:09:22;4.13;;;2.25;;
43801;SDS011;29429;51.074;13.764;2023-04-06T11:11:57;4.57;;;2.60;;
43801;SDS011;29429;51.074;13.764;2023-04-06T11:14:41;5.57;;;2.63;;
43801;SDS011;29429;51.074;13.764;2023-04-06T11:17:53;4.68;;;2.45;;
43801;SDS011;29429;51.074;13.764;2023-04-06T11:20:46;4.50;;;2.65;;
43801;SDS011;29429;51.074;13.764;2023-04-06T11:23:26;3.58;;;2.67;;
43801;SDS011;29429;51.074;13.764;2023-04-06T11:25:56;3.90;;;2.42;;
43801;SDS011;29429;51.074;13.764;2023-04-06T11:28:26;7.28;;;2.78;;
43801;SDS011;29429;51.074;13.764;2023-04-06T11:30:56;4.10;;;2.65;;
43801;SDS011;29429;51.074;13.764;2023-04-06T11:33:27;4.43;;;2.50;;
43801;SDS011;29429;51.074;13.764;2023-04-06T11:35:58;4.68;;;2.83;;
43801;SDS011;29429;51.074;13.764;2023-04-06T11:38:29;4.28;;;2.40;;
43801;SDS011;29429;51.074;13.764;2023-04-06T11:41:16;5.43;;;2.50;;
43801;SDS011;29429;51.074;13.764;2023-04-06T11:43:54;4.25;;;2.60;;
43801;SDS011;29429;51.074;13.764;2023-04-06T11:46:33;8.32;;;2.72;;
43801;SDS011;29429;51.074;13.764;2023-04-06T11:49:01;3.22;;;2.17;;
43801;SDS011;29429;51.074;13.764;2023-04-06T11:51:35;3.95;;;2.60;;
43801;SDS011;29429;51.074;13.764;2023-04-06T11:54:09;5.55;;;2.42;;
43801;SDS011;29429;51.074;13.764;2023-04-06T11:56:54;3.28;;;2.58;;
43801;SDS011;29429;51.074;13.764;2023-04-06T11:59:34;4.95;;;2.45;;
43801;SDS011;29429;51.074;13.764;2023-04-06T12:02:05;5.85;;;2.47;;
43801;SDS011;29429;51.074;13.764;2023-04-06T12:04:39;4.15;;;2.28;;
43801;SDS011;29429;51.074;13.764;2023-04-06T12:07:24;4.43;;;2.30;;
43801;SDS011;29429;51.074;13.764;2023-04-06T12:10:02;4.35;;;2.20;;
43801;SDS011;29429;51.074;13.764;2023-04-06T12:13:22;4.75;;;2.80;;
43801;SDS011;29429;51.074;13.764;2023-04-06T12:15:54;4.32;;;2.63;;
43801;SDS011;29429;51.074;13.764;2023-04-06T12:22:20;5.28;;;3.08;;
43801;SDS011;29429;51.074;13.764;2023-04-06T12:25:05;5.32;;;2.80;;
43801;SDS011;29429;51.074;13.764;2023-04-06T12:28:18;3.20;;;2.78;;
43801;SDS011;29429;51.074;13.764;2023-04-06T12:30:58;4.60;;;3.13;;
43801;SDS011;29429;51.074;13.764;2023-04-06T12:33:34;4.00;;;3.13;;
43801;SDS011;29429;51.074;13.764;2023-04-06T12:36:02;4.00;;;3.00;;
43801;SDS011;29429;51.074;13.764;2023-04-06T12:38:29;5.22;;;3.22;;
43801;SDS011;29429;51.074;13.764;2023-04-06T12:41:05;4.35;;;3.03;;
43801;SDS011;29429;51.074;13.764;2023-04-06T12:43:33;5.72;;;3.53;;
43801;SDS011;29429;51.074;13.764;2023-04-06T12:46:06;10.32;;;3.63;;
43801;SDS011;29429;51.074;13.764;2023-04-06T12:48:34;4.40;;;2.97;;
43801;SDS011;29429;51.074;13.764;2023-04-06T12:51:09;4.95;;;3.10;;
43801;SDS011;29429;51.074;13.764;2023-04-06T12:53:46;6.43;;;2.80;;
43801;SDS011;29429;51.074;13.764;2023-04-06T12:56:15;3.47;;;2.65;;
43801;SDS011;29429;51.074;13.764;2023-04-06T12:58:50;4.18;;;2.83;;
43801;SDS011;29429;51.074;13.764;2023-04-06T13:04:50;7.50;;;3.00;;
43801;SDS011;29429;51.074;13.764;2023-04-06T13:07:18;5.00;;;2.97;;
43801;SDS011;29429;51.074;13.764;2023-04-06T13:14:20;4.40;;;2.60;;
43801;SDS011;29429;51.074;13.764;2023-04-06T13:17:19;4.65;;;3.10;;
43801;SDS011;29429;51.074;13.764;2023-04-06T13:19:48;7.63;;;3.42;;
43801;SDS011;29429;51.074;13.764;2023-04-06T13:22:22;6.32;;;2.97;;
43801;SDS011;29429;51.074;13.764;2023-04-06T13:24:54;5.72;;;2.97;;
43801;SDS011;29429;51.074;13.764;2023-04-06T13:27:24;3.42;;;2.55;;
43801;SDS011;29429;51.074;13.764;2023-04-06T13:29:56;3.97;;;3.08;;
43801;SDS011;29429;51.074;13.764;2023-04-06T13:32:27;3.80;;;2.50;;
43801;SDS011;29429;51.074;13.764;2023-04-06T13:34:56;2.60;;;2.30;;
43801;SDS011;29429;51.074;13.764;2023-04-06T13:37:30;3.75;;;2.88;;
43801;SDS011;29429;51.074;13.764;2023-04-06T13:40:09;4.82;;;2.80;;
43801;SDS011;29429;51.074;13.764;2023-04-06T13:42:42;4.07;;;2.80;;
43801;SDS011;29429;51.074;13.764;2023-04-06T13:45:11;5.25;;;2.85;;
43801;SDS011;29429;51.074;13.764;2023-04-06T13:47:39;4.38;;;2.80;;
43801;SDS011;29429;51.074;13.764;2023-04-06T13:50:07;4.00;;;2.63;;
43801;SDS011;29429;51.074;13.764;2023-04-06T13:52:35;3.22;;;2.55;;
43801;SDS011;29429;51.074;13.764;2023-04-06T13:55:02;3.95;;;2.65;;
43801;SDS011;29429;51.074;13.764;2023-04-06T13:57:30;5.53;;;3.05;;
43801;SDS011;29429;51.074;13.764;2023-04-06T13:59:58;5.13;;;3.05;;
43801;SDS011;29429;51.074;13.764;2023-04-06T14:02:25;11.73;;;2.83;;
43801;SDS011;29429;51.074;13.764;2023-04-06T14:04:53;4.63;;;2.80;;
43801;SDS011;29429;51.074;13.764;2023-04-06T14:07:21;5.82;;;2.80;;
43801;SDS011;29429;51.074;13.764;2023-04-06T14:09:50;5.25;;;2.80;;
43801;SDS011;29429;51.074;13.764;2023-04-06T14:12:17;4.00;;;2.95;;
43801;SDS011;29429;51.074;13.764;2023-04-06T14:14:44;5.20;;;2.65;;
43801;SDS011;29429;51.074;13.764;2023-04-06T14:17:12;4.45;;;2.88;;
43801;SDS011;29429;51.074;13.764;2023-04-06T14:19:39;5.97;;;3.13;;
43801;SDS011;29429;51.074;13.764;2023-04-06T14:22:08;6.00;;;3.05;;
43801;SDS011;29429;51.074;13.764;2023-04-06T14:24:36;5.32;;;2.83;;
43801;SDS011;29429;51.074;13.764;2023-04-06T14:27:04;5.03;;;3.03;;
43801;SDS011;29429;51.074;13.764;2023-04-06T14:29:32;3.90;;;2.83;;
43801;SDS011;29429;51.074;13.764;2023-04-06T14:31:59;4.15;;;2.60;;
43801;SDS011;29429;51.074;13.764;2023-04-06T14:34:27;3.90;;;2.55;;
43801;SDS011;29429;51.074;13.764;2023-04-06T14:36:55;4.82;;;2.80;;
43801;SDS011;29429;51.074;13.764;2023-04-06T14:39:25;4.30;;;2.47;;
43801;SDS011;29429;51.074;13.764;2023-04-06T14:41:53;5.05;;;3.08;;
43801;SDS011;29429;51.074;13.764;2023-04-06T14:44:24;3.72;;;2.60;;
43801;SDS011;29429;51.074;13.764;2023-04-06T14:46:54;4.43;;;2.38;;
43801;SDS011;29429;51.074;13.764;2023-04-06T14:53:26;4.30;;;2.58;;
43801;SDS011;29429;51.074;13.764;2023-04-06T14:55:54;3.70;;;2.60;;
43801;SDS011;29429;51.074;13.764;2023-04-06T14:58:22;4.22;;;2.85;;
43801;SDS011;29429;51.074;13.764;2023-04-06T15:00:55;3.72;;;2.40;;
43801;SDS011;29429;51.074;13.764;2023-04-06T15:03:27;4.82;;;2.60;;
43801;SDS011;29429;51.074;13.764;2023-04-06T15:05:56;5.63;;;3.15;;
43801;SDS011;29429;51.074;13.764;2023-04-06T15:08:24;3.78;;;2.50;;
43801;SDS011;29429;51.074;13.764;2023-04-06T15:10:51;4.40;;;2.72;;
43801;SDS011;29429;51.074;13.764;2023-04-06T15:13:22;3.15;;;2.22;;
43801;SDS011;29429;51.074;13.764;2023-04-06T15:15:50;3.10;;;2.22;;
43801;SDS011;29429;51.074;13.764;2023-04-06T15:18:18;5.53;;;2.60;;
43801;SDS011;29429;51.074;13.764;2023-04-06T15:20:46;3.45;;;2.50;;
43801;SDS011;29429;51.074;13.764;2023-04-06T15:23:14;4.78;;;2.40;;
43801;SDS011;29429;51.074;13.764;2023-04-06T15:25:44;4.38;;;2.22;;
43801;SDS011;29429;51.074;13.764;2023-04-06T15:28:12;4.53;;;2.35;;
43801;SDS011;29429;51.074;13.764;2023-04-06T15:30:40;4.57;;;2.17;;
43801;SDS011;29429;51.074;13.764;2023-04-06T15:33:07;3.70;;;2.25;;
43801;SDS011;29429;51.074;13.764;2023-04-06T15:35:36;2.92;;;2.17;;
43801;SDS011;29429;51.074;13.764;2023-04-06T15:38:12;3.17;;;2.00;;
43801;SDS011;29429;51.074;13.764;2023-04-06T15:40:47;4.15;;;2.42;;
43801;SDS011;29429;51.074;13.764;2023-04-06T15:43:18;4.10;;;2.30;;
43801;SDS011;29429;51.074;13.764;2023-04-06T15:45:46;6.07;;;2.70;;
43801;SDS011;29429;51.074;13.764;2023-04-06T15:48:14;3.08;;;2.40;;
43801;SDS011;29429;51.074;13.764;2023-04-06T15:50:50;4.40;;;2.40;;
43801;SDS011;29429;51.074;13.764;2023-04-06T15:53:27;5.15;;;2.80;;